sensor_id;sensor_type;location;lat;lon;timestamp;temperature;humidity
84296;SHT31;74464;42.688;23.304;2024-01-27T00:01:59;3.02;63.58
84296;SHT31;74464;42.688;23.304;2024-01-27T00:04:26;3.02;63.32
84296;SHT31;74464;42.688;23.304;2024-01-27T00:06:53;3.01;63.31
84296;SHT31;74464;42.688;23.304;2024-01-27T00:09:19;2.95;63.44
84296;SHT31;74464;42.688;23.304;2024-01-27T00:11:45;2.92;63.48
84296;SHT31;74464;42.688;23.304;2024-01-27T00:14:11;2.80;63.73
84296;SHT31;74464;42.688;23.304;2024-01-27T00:16:37;2.87;63.92
84296;SHT31;74464;42.688;23.304;2024-01-27T00:19:03;2.84;63.62
84296;SHT31;74464;42.688;23.304;2024-01-27T00:21:32;2.81;63.86
84296;SHT31;74464;42.688;23.304;2024-01-27T00:23:57;2.74;64.16
84296;SHT31;74464;42.688;23.304;2024-01-27T00:26:26;2.81;63.97
84296;SHT31;74464;42.688;23.304;2024-01-27T00:28:52;2.80;64.17
84296;SHT31;74464;42.688;23.304;2024-01-27T00:31:18;2.94;63.69
84296;SHT31;74464;42.688;23.304;2024-01-27T00:33:44;2.98;63.53
84296;SHT31;74464;42.688;23.304;2024-01-27T00:36:09;3.01;63.47
84296;SHT31;74464;42.688;23.304;2024-01-27T00:38:35;3.01;63.61
84296;SHT31;74464;42.688;23.304;2024-01-27T00:41:01;2.97;63.60
84296;SHT31;74464;42.688;23.304;2024-01-27T00:43:26;2.83;64.26
84296;SHT31;74464;42.688;23.304;2024-01-27T00:45:52;2.81;64.11
84296;SHT31;74464;42.688;23.304;2024-01-27T00:48:18;2.90;64.06
84296;SHT31;74464;42.688;23.304;2024-01-27T00:50:45;2.78;64.40
84296;SHT31;74464;42.688;23.304;2024-01-27T00:53:11;2.88;64.25
84296;SHT31;74464;42.688;23.304;2024-01-27T00:55:36;2.85;64.31
84296;SHT31;74464;42.688;23.304;2024-01-27T00:58:02;2.91;64.39
84296;SHT31;74464;42.688;23.304;2024-01-27T01:00:29;2.97;64.31
84296;SHT31;74464;42.688;23.304;2024-01-27T01:02:54;3.09;64.14
84296;SHT31;74464;42.688;23.304;2024-01-27T01:05:21;3.19;64.02
84296;SHT31;74464;42.688;23.304;2024-01-27T01:07:46;3.19;64.20
84296;SHT31;74464;42.688;23.304;2024-01-27T01:10:12;3.30;64.15
84296;SHT31;74464;42.688;23.304;2024-01-27T01:12:38;3.33;64.01
84296;SHT31;74464;42.688;23.304;2024-01-27T01:15:04;3.36;64.14
84296;SHT31;74464;42.688;23.304;2024-01-27T01:17:29;3.42;63.83
84296;SHT31;74464;42.688;23.304;2024-01-27T01:19:55;3.37;64.05
84296;SHT31;74464;42.688;23.304;2024-01-27T01:22:22;3.36;64.10
84296;SHT31;74464;42.688;23.304;2024-01-27T01:24:48;3.27;64.50
84296;SHT31;74464;42.688;23.304;2024-01-27T01:27:13;3.26;64.37
84296;SHT31;74464;42.688;23.304;2024-01-27T01:29:39;3.20;64.30
84296;SHT31;74464;42.688;23.304;2024-01-27T01:32:06;3.23;63.87
84296;SHT31;74464;42.688;23.304;2024-01-27T01:34:32;3.19;63.97
84296;SHT31;74464;42.688;23.304;2024-01-27T01:37:00;3.19;63.65
84296;SHT31;74464;42.688;23.304;2024-01-27T01:39:29;3.29;63.04
84296;SHT31;74464;42.688;23.304;2024-01-27T01:41:56;3.35;63.29
84296;SHT31;74464;42.688;23.304;2024-01-27T01:44:21;3.29;63.21
84296;SHT31;74464;42.688;23.304;2024-01-27T01:46:47;3.25;63.30
84296;SHT31;74464;42.688;23.304;2024-01-27T01:49:12;3.27;63.04
84296;SHT31;74464;42.688;23.304;2024-01-27T01:51:38;3.30;63.09
84296;SHT31;74464;42.688;23.304;2024-01-27T01:54:05;3.30;62.78
84296;SHT31;74464;42.688;23.304;2024-01-27T01:56:30;3.29;63.00
84296;SHT31;74464;42.688;23.304;2024-01-27T01:58:58;3.32;62.90
84296;SHT31;74464;42.688;23.304;2024-01-27T02:01:24;3.36;62.86
84296;SHT31;74464;42.688;23.304;2024-01-27T02:03:54;3.25;63.23
84296;SHT31;74464;42.688;23.304;2024-01-27T02:06:20;3.16;63.43
84296;SHT31;74464;42.688;23.304;2024-01-27T02:08:46;3.26;63.18
84296;SHT31;74464;42.688;23.304;2024-01-27T02:11:11;3.30;62.43
84296;SHT31;74464;42.688;23.304;2024-01-27T02:13:37;3.23;62.33
84296;SHT31;74464;42.688;23.304;2024-01-27T02:16:03;3.36;61.80
84296;SHT31;74464;42.688;23.304;2024-01-27T02:18:29;3.49;60.22
84296;SHT31;74464;42.688;23.304;2024-01-27T02:20:55;3.54;59.94
84296;SHT31;74464;42.688;23.304;2024-01-27T02:23:20;3.69;59.24
84296;SHT31;74464;42.688;23.304;2024-01-27T02:25:46;3.84;58.62
84296;SHT31;74464;42.688;23.304;2024-01-27T02:28:11;3.92;57.71
84296;SHT31;74464;42.688;23.304;2024-01-27T02:30:39;3.87;58.41
84296;SHT31;74464;42.688;23.304;2024-01-27T02:33:06;3.85;57.54
84296;SHT31;74464;42.688;23.304;2024-01-27T02:35:31;3.99;56.13
84296;SHT31;74464;42.688;23.304;2024-01-27T02:37:57;4.15;55.49
84296;SHT31;74464;42.688;23.304;2024-01-27T02:40:23;4.33;54.08
84296;SHT31;74464;42.688;23.304;2024-01-27T02:42:48;4.36;54.02
84296;SHT31;74464;42.688;23.304;2024-01-27T02:45:14;4.44;53.42
84296;SHT31;74464;42.688;23.304;2024-01-27T02:47:40;4.52;52.81
84296;SHT31;74464;42.688;23.304;2024-01-27T02:50:06;4.68;52.04
84296;SHT31;74464;42.688;23.304;2024-01-27T02:52:32;4.70;53.41
84296;SHT31;74464;42.688;23.304;2024-01-27T02:54:59;4.75;52.94
84296;SHT31;74464;42.688;23.304;2024-01-27T02:57:24;4.43;53.02
84296;SHT31;74464;42.688;23.304;2024-01-27T02:59:50;4.42;52.89
84296;SHT31;74464;42.688;23.304;2024-01-27T03:02:16;4.52;52.91
84296;SHT31;74464;42.688;23.304;2024-01-27T03:04:43;4.64;51.76
84296;SHT31;74464;42.688;23.304;2024-01-27T03:07:09;4.81;53.78
84296;SHT31;74464;42.688;23.304;2024-01-27T03:09:35;4.56;53.59
84296;SHT31;74464;42.688;23.304;2024-01-27T03:12:01;4.56;53.18
84296;SHT31;74464;42.688;23.304;2024-01-27T03:14:33;4.73;53.88
84296;SHT31;74464;42.688;23.304;2024-01-27T03:16:58;4.68;55.58
84296;SHT31;74464;42.688;23.304;2024-01-27T03:19:25;4.67;56.69
84296;SHT31;74464;42.688;23.304;2024-01-27T03:21:51;4.56;57.32
84296;SHT31;74464;42.688;23.304;2024-01-27T03:24:17;4.56;57.80
84296;SHT31;74464;42.688;23.304;2024-01-27T03:26:43;4.46;58.42
84296;SHT31;74464;42.688;23.304;2024-01-27T03:29:09;4.53;59.76
84296;SHT31;74464;42.688;23.304;2024-01-27T03:31:35;4.37;60.79
84296;SHT31;74464;42.688;23.304;2024-01-27T03:34:02;4.26;61.97
84296;SHT31;74464;42.688;23.304;2024-01-27T03:36:28;4.22;62.36
84296;SHT31;74464;42.688;23.304;2024-01-27T03:38:56;4.13;63.16
84296;SHT31;74464;42.688;23.304;2024-01-27T03:41:23;4.03;64.93
84296;SHT31;74464;42.688;23.304;2024-01-27T03:43:49;3.91;65.26
84296;SHT31;74464;42.688;23.304;2024-01-27T03:46:15;3.94;66.01
84296;SHT31;74464;42.688;23.304;2024-01-27T03:48:41;3.87;66.64
84296;SHT31;74464;42.688;23.304;2024-01-27T03:51:06;3.94;67.50
84296;SHT31;74464;42.688;23.304;2024-01-27T03:53:32;3.94;67.89
84296;SHT31;74464;42.688;23.304;2024-01-27T03:55:58;3.84;68.41
84296;SHT31;74464;42.688;23.304;2024-01-27T03:58:26;3.92;68.95
84296;SHT31;74464;42.688;23.304;2024-01-27T04:00:51;3.88;69.52
84296;SHT31;74464;42.688;23.304;2024-01-27T04:03:17;3.97;70.70
84296;SHT31;74464;42.688;23.304;2024-01-27T04:05:43;3.94;71.27
84296;SHT31;74464;42.688;23.304;2024-01-27T04:08:09;3.84;71.18
84296;SHT31;74464;42.688;23.304;2024-01-27T04:10:35;3.84;71.57
84296;SHT31;74464;42.688;23.304;2024-01-27T04:13:01;3.84;71.84
84296;SHT31;74464;42.688;23.304;2024-01-27T04:15:27;3.91;70.72
84296;SHT31;74464;42.688;23.304;2024-01-27T04:17:52;3.78;70.53
84296;SHT31;74464;42.688;23.304;2024-01-27T04:20:20;3.70;71.33
84296;SHT31;74464;42.688;23.304;2024-01-27T04:22:46;3.66;71.29
84296;SHT31;74464;42.688;23.304;2024-01-27T04:25:12;3.59;71.34
84296;SHT31;74464;42.688;23.304;2024-01-27T04:27:39;3.69;70.96
84296;SHT31;74464;42.688;23.304;2024-01-27T04:30:11;3.74;71.40
84296;SHT31;74464;42.688;23.304;2024-01-27T04:32:37;3.92;71.11
84296;SHT31;74464;42.688;23.304;2024-01-27T04:35:04;4.01;70.58
84296;SHT31;74464;42.688;23.304;2024-01-27T04:37:31;4.05;70.92
84296;SHT31;74464;42.688;23.304;2024-01-27T04:39:57;3.81;71.11
84296;SHT31;74464;42.688;23.304;2024-01-27T04:42:22;3.70;71.98
84296;SHT31;74464;42.688;23.304;2024-01-27T04:44:48;3.64;73.28
84296;SHT31;74464;42.688;23.304;2024-01-27T04:47:14;3.60;73.88
84296;SHT31;74464;42.688;23.304;2024-01-27T04:49:41;3.57;74.17
84296;SHT31;74464;42.688;23.304;2024-01-27T04:52:06;3.59;74.97
84296;SHT31;74464;42.688;23.304;2024-01-27T04:54:32;3.70;74.90
84296;SHT31;74464;42.688;23.304;2024-01-27T04:57:00;3.77;75.35
84296;SHT31;74464;42.688;23.304;2024-01-27T04:59:25;3.85;75.29
84296;SHT31;74464;42.688;23.304;2024-01-27T05:01:52;3.91;75.43
84296;SHT31;74464;42.688;23.304;2024-01-27T05:04:18;3.84;75.72
84296;SHT31;74464;42.688;23.304;2024-01-27T05:06:44;3.80;76.04
84296;SHT31;74464;42.688;23.304;2024-01-27T05:09:13;3.75;76.56
84296;SHT31;74464;42.688;23.304;2024-01-27T05:11:40;3.67;77.31
84296;SHT31;74464;42.688;23.304;2024-01-27T05:14:08;3.56;78.06
84296;SHT31;74464;42.688;23.304;2024-01-27T05:16:36;3.49;79.02
84296;SHT31;74464;42.688;23.304;2024-01-27T05:19:03;3.44;79.24
84296;SHT31;74464;42.688;23.304;2024-01-27T05:21:29;3.53;79.24
84296;SHT31;74464;42.688;23.304;2024-01-27T05:23:55;3.60;79.40
84296;SHT31;74464;42.688;23.304;2024-01-27T05:26:21;3.57;79.27
84296;SHT31;74464;42.688;23.304;2024-01-27T05:28:46;3.54;79.99
84296;SHT31;74464;42.688;23.304;2024-01-27T05:31:12;3.47;80.29
84296;SHT31;74464;42.688;23.304;2024-01-27T05:33:42;3.52;80.52
84296;SHT31;74464;42.688;23.304;2024-01-27T05:36:09;3.54;80.20
84296;SHT31;74464;42.688;23.304;2024-01-27T05:38:36;3.64;80.48
84296;SHT31;74464;42.688;23.304;2024-01-27T05:41:02;3.53;80.62
84296;SHT31;74464;42.688;23.304;2024-01-27T05:43:28;3.54;80.41
84296;SHT31;74464;42.688;23.304;2024-01-27T05:45:54;3.46;80.41
84296;SHT31;74464;42.688;23.304;2024-01-27T05:48:20;3.47;80.35
84296;SHT31;74464;42.688;23.304;2024-01-27T05:50:59;3.40;80.69
84296;SHT31;74464;42.688;23.304;2024-01-27T05:53:25;3.37;81.37
84296;SHT31;74464;42.688;23.304;2024-01-27T05:55:52;3.46;81.03
84296;SHT31;74464;42.688;23.304;2024-01-27T05:58:19;3.44;81.32
84296;SHT31;74464;42.688;23.304;2024-01-27T06:00:47;3.47;81.04
84296;SHT31;74464;42.688;23.304;2024-01-27T06:03:13;3.54;80.99
84296;SHT31;74464;42.688;23.304;2024-01-27T06:05:41;3.52;80.70
84296;SHT31;74464;42.688;23.304;2024-01-27T06:08:07;3.27;81.40
84296;SHT31;74464;42.688;23.304;2024-01-27T06:10:34;3.18;82.09
84296;SHT31;74464;42.688;23.304;2024-01-27T06:13:02;3.01;82.68
84296;SHT31;74464;42.688;23.304;2024-01-27T06:15:28;2.88;83.40
84296;SHT31;74464;42.688;23.304;2024-01-27T06:17:54;2.80;84.02
84296;SHT31;74464;42.688;23.304;2024-01-27T06:20:20;2.84;84.37
84296;SHT31;74464;42.688;23.304;2024-01-27T06:22:46;2.90;83.94
84296;SHT31;74464;42.688;23.304;2024-01-27T06:25:12;2.95;83.40
84296;SHT31;74464;42.688;23.304;2024-01-27T06:27:41;3.04;83.49
84296;SHT31;74464;42.688;23.304;2024-01-27T06:30:07;3.11;83.16
84296;SHT31;74464;42.688;23.304;2024-01-27T06:32:33;3.25;82.36
84296;SHT31;74464;42.688;23.304;2024-01-27T06:34:59;3.40;81.87
84296;SHT31;74464;42.688;23.304;2024-01-27T06:37:25;3.56;81.76
84296;SHT31;74464;42.688;23.304;2024-01-27T06:39:50;3.77;81.33
84296;SHT31;74464;42.688;23.304;2024-01-27T06:42:17;3.81;80.49
84296;SHT31;74464;42.688;23.304;2024-01-27T06:44:42;3.87;80.59
84296;SHT31;74464;42.688;23.304;2024-01-27T06:47:13;3.94;80.07
84296;SHT31;74464;42.688;23.304;2024-01-27T06:49:40;4.03;79.36
84296;SHT31;74464;42.688;23.304;2024-01-27T06:52:05;4.09;78.96
84296;SHT31;74464;42.688;23.304;2024-01-27T06:54:31;4.12;78.93
84296;SHT31;74464;42.688;23.304;2024-01-27T06:57:00;4.25;78.21
84296;SHT31;74464;42.688;23.304;2024-01-27T06:59:26;4.28;78.19
84296;SHT31;74464;42.688;23.304;2024-01-27T07:01:52;4.37;77.21
84296;SHT31;74464;42.688;23.304;2024-01-27T07:04:18;4.58;76.46
84296;SHT31;74464;42.688;23.304;2024-01-27T07:06:44;4.63;74.33
84296;SHT31;74464;42.688;23.304;2024-01-27T07:09:11;4.70;74.61
84296;SHT31;74464;42.688;23.304;2024-01-27T07:11:38;4.71;73.93
84296;SHT31;74464;42.688;23.304;2024-01-27T07:14:04;4.78;73.81
84296;SHT31;74464;42.688;23.304;2024-01-27T07:16:32;4.88;73.70
84296;SHT31;74464;42.688;23.304;2024-01-27T07:18:59;4.89;72.65
84296;SHT31;74464;42.688;23.304;2024-01-27T07:21:25;4.95;72.49
84296;SHT31;74464;42.688;23.304;2024-01-27T07:23:53;4.88;72.53
84296;SHT31;74464;42.688;23.304;2024-01-27T07:26:19;4.78;72.34
84296;SHT31;74464;42.688;23.304;2024-01-27T07:28:44;4.73;71.83
84296;SHT31;74464;42.688;23.304;2024-01-27T07:31:10;4.61;71.98
84296;SHT31;74464;42.688;23.304;2024-01-27T07:33:36;4.57;73.15
84296;SHT31;74464;42.688;23.304;2024-01-27T07:36:04;4.53;72.98
84296;SHT31;74464;42.688;23.304;2024-01-27T07:38:30;4.54;72.09
84296;SHT31;74464;42.688;23.304;2024-01-27T07:40:55;4.58;71.30
84296;SHT31;74464;42.688;23.304;2024-01-27T07:43:23;4.53;71.45
84296;SHT31;74464;42.688;23.304;2024-01-27T07:45:49;4.52;71.44
84296;SHT31;74464;42.688;23.304;2024-01-27T07:48:15;4.56;70.47
84296;SHT31;74464;42.688;23.304;2024-01-27T07:50:41;4.52;71.58
84296;SHT31;74464;42.688;23.304;2024-01-27T07:53:11;4.53;69.47
84296;SHT31;74464;42.688;23.304;2024-01-27T07:55:36;4.53;69.51
84296;SHT31;74464;42.688;23.304;2024-01-27T07:58:03;4.61;68.75
84296;SHT31;74464;42.688;23.304;2024-01-27T08:00:29;4.65;68.24
84296;SHT31;74464;42.688;23.304;2024-01-27T08:02:54;4.50;68.93
84296;SHT31;74464;42.688;23.304;2024-01-27T08:05:21;4.44;68.59
84296;SHT31;74464;42.688;23.304;2024-01-27T08:07:50;4.70;68.50
84296;SHT31;74464;42.688;23.304;2024-01-27T08:10:16;4.61;68.73
84296;SHT31;74464;42.688;23.304;2024-01-27T08:12:42;4.56;68.67
84296;SHT31;74464;42.688;23.304;2024-01-27T08:15:09;4.53;69.42
84296;SHT31;74464;42.688;23.304;2024-01-27T08:17:34;4.53;69.45
84296;SHT31;74464;42.688;23.304;2024-01-27T08:20:01;4.56;69.06
84296;SHT31;74464;42.688;23.304;2024-01-27T08:22:27;4.63;68.37
84296;SHT31;74464;42.688;23.304;2024-01-27T08:24:53;4.50;69.05
84296;SHT31;74464;42.688;23.304;2024-01-27T08:27:19;4.57;67.77
84296;SHT31;74464;42.688;23.304;2024-01-27T08:29:46;4.68;67.52
84296;SHT31;74464;42.688;23.304;2024-01-27T08:32:12;4.77;67.08
84296;SHT31;74464;42.688;23.304;2024-01-27T08:34:38;4.88;66.09
84296;SHT31;74464;42.688;23.304;2024-01-27T08:37:14;4.88;66.53
84296;SHT31;74464;42.688;23.304;2024-01-27T08:39:42;4.99;66.02
84296;SHT31;74464;42.688;23.304;2024-01-27T08:42:08;5.04;65.82
84296;SHT31;74464;42.688;23.304;2024-01-27T08:44:35;4.99;66.09
84296;SHT31;74464;42.688;23.304;2024-01-27T08:47:01;5.01;65.73
84296;SHT31;74464;42.688;23.304;2024-01-27T08:49:26;5.12;66.13
84296;SHT31;74464;42.688;23.304;2024-01-27T08:51:52;5.07;65.80
84296;SHT31;74464;42.688;23.304;2024-01-27T08:54:18;5.13;65.97
84296;SHT31;74464;42.688;23.304;2024-01-27T08:56:45;5.39;66.01
84296;SHT31;74464;42.688;23.304;2024-01-27T08:59:13;5.44;66.07
84296;SHT31;74464;42.688;23.304;2024-01-27T09:01:39;5.70;65.16
84296;SHT31;74464;42.688;23.304;2024-01-27T09:04:04;5.84;63.99
84296;SHT31;74464;42.688;23.304;2024-01-27T09:06:30;5.37;65.11
84296;SHT31;74464;42.688;23.304;2024-01-27T09:08:56;5.40;65.46
84296;SHT31;74464;42.688;23.304;2024-01-27T09:11:23;5.51;63.93
84296;SHT31;74464;42.688;23.304;2024-01-27T09:13:51;5.68;63.61
84296;SHT31;74464;42.688;23.304;2024-01-27T09:16:18;5.67;62.86
84296;SHT31;74464;42.688;23.304;2024-01-27T09:18:43;5.79;62.05
84296;SHT31;74464;42.688;23.304;2024-01-27T09:21:09;5.75;62.24
84296;SHT31;74464;42.688;23.304;2024-01-27T09:23:36;6.08;62.10
84296;SHT31;74464;42.688;23.304;2024-01-27T09:26:02;5.79;62.62
84296;SHT31;74464;42.688;23.304;2024-01-27T09:28:28;5.78;62.68
84296;SHT31;74464;42.688;23.304;2024-01-27T09:30:54;6.09;62.28
84296;SHT31;74464;42.688;23.304;2024-01-27T09:33:20;5.97;61.90
84296;SHT31;74464;42.688;23.304;2024-01-27T09:35:49;5.71;62.86
84296;SHT31;74464;42.688;23.304;2024-01-27T09:38:16;5.53;63.45
84296;SHT31;74464;42.688;23.304;2024-01-27T09:40:45;5.35;63.77
84296;SHT31;74464;42.688;23.304;2024-01-27T09:43:13;5.25;64.29
84296;SHT31;74464;42.688;23.304;2024-01-27T09:45:40;5.19;64.99
84296;SHT31;74464;42.688;23.304;2024-01-27T09:48:07;5.19;64.73
84296;SHT31;74464;42.688;23.304;2024-01-27T09:50:36;5.16;64.34
84296;SHT31;74464;42.688;23.304;2024-01-27T09:53:03;5.09;64.66
84296;SHT31;74464;42.688;23.304;2024-01-27T09:55:33;4.96;65.04
84296;SHT31;74464;42.688;23.304;2024-01-27T09:58:00;4.87;64.96
84296;SHT31;74464;42.688;23.304;2024-01-27T10:00:27;4.88;65.02
84296;SHT31;74464;42.688;23.304;2024-01-27T10:02:54;4.96;64.70
84296;SHT31;74464;42.688;23.304;2024-01-27T10:05:21;4.89;64.83
84296;SHT31;74464;42.688;23.304;2024-01-27T10:07:47;4.99;64.84
84296;SHT31;74464;42.688;23.304;2024-01-27T10:10:13;4.87;65.49
84296;SHT31;74464;42.688;23.304;2024-01-27T10:12:42;4.99;65.44
84296;SHT31;74464;42.688;23.304;2024-01-27T10:15:21;4.89;65.62
84296;SHT31;74464;42.688;23.304;2024-01-27T10:17:49;4.80;66.02
84296;SHT31;74464;42.688;23.304;2024-01-27T10:20:16;4.87;65.56
84296;SHT31;74464;42.688;23.304;2024-01-27T10:22:45;4.95;65.74
84296;SHT31;74464;42.688;23.304;2024-01-27T10:25:11;4.81;65.94
84296;SHT31;74464;42.688;23.304;2024-01-27T10:27:39;4.65;66.36
84296;SHT31;74464;42.688;23.304;2024-01-27T10:30:17;4.63;66.57
84296;SHT31;74464;42.688;23.304;2024-01-27T10:32:44;4.71;66.52
84296;SHT31;74464;42.688;23.304;2024-01-27T10:35:20;4.75;66.49
84296;SHT31;74464;42.688;23.304;2024-01-27T10:37:50;4.77;66.71
84296;SHT31;74464;42.688;23.304;2024-01-27T10:40:16;4.81;66.41
84296;SHT31;74464;42.688;23.304;2024-01-27T10:42:44;4.82;66.56
84296;SHT31;74464;42.688;23.304;2024-01-27T10:45:11;4.89;66.37
84296;SHT31;74464;42.688;23.304;2024-01-27T10:47:38;4.68;66.83
84296;SHT31;74464;42.688;23.304;2024-01-27T10:50:09;4.74;66.69
84296;SHT31;74464;42.688;23.304;2024-01-27T10:52:41;4.71;66.59
84296;SHT31;74464;42.688;23.304;2024-01-27T10:55:10;4.70;67.01
84296;SHT31;74464;42.688;23.304;2024-01-27T10:57:39;4.61;67.17
84296;SHT31;74464;42.688;23.304;2024-01-27T11:00:08;4.74;67.04
84296;SHT31;74464;42.688;23.304;2024-01-27T11:02:36;4.71;67.52
84296;SHT31;74464;42.688;23.304;2024-01-27T11:05:05;4.60;67.80
84296;SHT31;74464;42.688;23.304;2024-01-27T11:07:34;4.49;68.29
84296;SHT31;74464;42.688;23.304;2024-01-27T11:10:00;4.63;68.53
84296;SHT31;74464;42.688;23.304;2024-01-27T11:12:26;4.43;68.42
84296;SHT31;74464;42.688;23.304;2024-01-27T11:14:53;4.43;68.76
84296;SHT31;74464;42.688;23.304;2024-01-27T11:17:20;4.33;69.14
84296;SHT31;74464;42.688;23.304;2024-01-27T11:19:49;4.26;69.63
84296;SHT31;74464;42.688;23.304;2024-01-27T11:22:29;4.25;69.97
84296;SHT31;74464;42.688;23.304;2024-01-27T11:27:32;4.37;69.37
84296;SHT31;74464;42.688;23.304;2024-01-27T11:29:59;4.46;69.22
84296;SHT31;74464;42.688;23.304;2024-01-27T11:32:26;4.39;69.02
84296;SHT31;74464;42.688;23.304;2024-01-27T11:34:53;4.39;69.34
84296;SHT31;74464;42.688;23.304;2024-01-27T11:37:19;4.30;69.29
84296;SHT31;74464;42.688;23.304;2024-01-27T11:39:51;4.19;69.05
84296;SHT31;74464;42.688;23.304;2024-01-27T11:42:17;4.33;69.02
84296;SHT31;74464;42.688;23.304;2024-01-27T11:44:43;4.18;69.28
84296;SHT31;74464;42.688;23.304;2024-01-27T11:47:17;4.18;69.05
84296;SHT31;74464;42.688;23.304;2024-01-27T11:49:51;4.26;68.12
84296;SHT31;74464;42.688;23.304;2024-01-27T11:52:21;4.25;67.97
84296;SHT31;74464;42.688;23.304;2024-01-27T11:54:58;4.29;68.36
84296;SHT31;74464;42.688;23.304;2024-01-27T11:57:25;4.36;67.57
84296;SHT31;74464;42.688;23.304;2024-01-27T11:59:52;4.36;67.14
84296;SHT31;74464;42.688;23.304;2024-01-27T12:02:18;4.36;66.26
84296;SHT31;74464;42.688;23.304;2024-01-27T12:04:43;4.50;66.31
84296;SHT31;74464;42.688;23.304;2024-01-27T12:07:10;4.56;65.80
84296;SHT31;74464;42.688;23.304;2024-01-27T12:09:36;4.65;65.16
84296;SHT31;74464;42.688;23.304;2024-01-27T12:12:04;4.70;65.20
84296;SHT31;74464;42.688;23.304;2024-01-27T12:14:47;4.64;64.72
84296;SHT31;74464;42.688;23.304;2024-01-27T12:17:14;4.73;64.85
84296;SHT31;74464;42.688;23.304;2024-01-27T12:19:46;4.92;63.97
84296;SHT31;74464;42.688;23.304;2024-01-27T12:22:27;4.95;63.57
84296;SHT31;74464;42.688;23.304;2024-01-27T12:25:08;5.13;63.72
84296;SHT31;74464;42.688;23.304;2024-01-27T12:27:35;5.29;62.81
84296;SHT31;74464;42.688;23.304;2024-01-27T12:30:01;5.35;63.15
84296;SHT31;74464;42.688;23.304;2024-01-27T12:32:28;5.42;61.86
84296;SHT31;74464;42.688;23.304;2024-01-27T12:34:55;5.63;62.33
84296;SHT31;74464;42.688;23.304;2024-01-27T12:37:21;5.50;61.62
84296;SHT31;74464;42.688;23.304;2024-01-27T12:39:47;5.60;61.38
84296;SHT31;74464;42.688;23.304;2024-01-27T12:42:16;5.35;61.95
84296;SHT31;74464;42.688;23.304;2024-01-27T12:44:42;5.42;61.50
84296;SHT31;74464;42.688;23.304;2024-01-27T12:47:13;5.23;62.85
84296;SHT31;74464;42.688;23.304;2024-01-27T12:49:40;4.98;63.11
84296;SHT31;74464;42.688;23.304;2024-01-27T12:52:06;5.15;63.17
84296;SHT31;74464;42.688;23.304;2024-01-27T12:54:33;5.02;63.83
84296;SHT31;74464;42.688;23.304;2024-01-27T12:56:59;5.08;63.66
84296;SHT31;74464;42.688;23.304;2024-01-27T12:59:29;4.98;63.20
84296;SHT31;74464;42.688;23.304;2024-01-27T13:01:55;5.08;63.08
84296;SHT31;74464;42.688;23.304;2024-01-27T13:04:21;5.11;61.37
84296;SHT31;74464;42.688;23.304;2024-01-27T13:06:52;4.96;60.49
84296;SHT31;74464;42.688;23.304;2024-01-27T13:09:21;4.99;60.96
84296;SHT31;74464;42.688;23.304;2024-01-27T13:11:47;5.09;59.49
84296;SHT31;74464;42.688;23.304;2024-01-27T13:14:13;5.08;59.54
84296;SHT31;74464;42.688;23.304;2024-01-27T13:16:39;5.20;59.02
84296;SHT31;74464;42.688;23.304;2024-01-27T13:19:05;5.01;59.33
84296;SHT31;74464;42.688;23.304;2024-01-27T13:21:32;5.15;59.16
84296;SHT31;74464;42.688;23.304;2024-01-27T13:23:57;5.07;59.18
84296;SHT31;74464;42.688;23.304;2024-01-27T13:26:23;5.07;59.15
84296;SHT31;74464;42.688;23.304;2024-01-27T13:28:50;4.80;59.82
84296;SHT31;74464;42.688;23.304;2024-01-27T13:31:17;4.87;60.22
84296;SHT31;74464;42.688;23.304;2024-01-27T13:33:43;4.81;59.54
84296;SHT31;74464;42.688;23.304;2024-01-27T13:36:12;5.01;57.56
84296;SHT31;74464;42.688;23.304;2024-01-27T13:38:39;4.99;56.31
84296;SHT31;74464;42.688;23.304;2024-01-27T13:41:05;5.11;56.97
84296;SHT31;74464;42.688;23.304;2024-01-27T13:43:31;5.25;55.71
84296;SHT31;74464;42.688;23.304;2024-01-27T13:45:56;5.20;55.38
84296;SHT31;74464;42.688;23.304;2024-01-27T13:48:23;5.18;56.24
84296;SHT31;74464;42.688;23.304;2024-01-27T13:50:49;5.02;56.55
84296;SHT31;74464;42.688;23.304;2024-01-27T13:53:14;4.87;56.83
84296;SHT31;74464;42.688;23.304;2024-01-27T13:55:40;4.57;57.51
84296;SHT31;74464;42.688;23.304;2024-01-27T13:58:08;4.44;57.81
84296;SHT31;74464;42.688;23.304;2024-01-27T14:00:33;4.43;58.13
84296;SHT31;74464;42.688;23.304;2024-01-27T14:03:01;4.49;58.37
84296;SHT31;74464;42.688;23.304;2024-01-27T14:05:27;4.53;58.30
84296;SHT31;74464;42.688;23.304;2024-01-27T14:07:53;4.50;58.39
84296;SHT31;74464;42.688;23.304;2024-01-27T14:10:20;4.43;58.04
84296;SHT31;74464;42.688;23.304;2024-01-27T14:12:46;4.36;58.16
84296;SHT31;74464;42.688;23.304;2024-01-27T14:15:13;4.32;58.51
84296;SHT31;74464;42.688;23.304;2024-01-27T14:17:40;4.19;58.57
84296;SHT31;74464;42.688;23.304;2024-01-27T14:20:06;4.28;58.64
84296;SHT31;74464;42.688;23.304;2024-01-27T14:22:35;4.33;58.19
84296;SHT31;74464;42.688;23.304;2024-01-27T14:25:02;4.33;58.00
84296;SHT31;74464;42.688;23.304;2024-01-27T14:27:28;4.39;58.15
84296;SHT31;74464;42.688;23.304;2024-01-27T14:30:02;4.33;57.96
84296;SHT31;74464;42.688;23.304;2024-01-27T14:32:48;4.26;58.33
84296;SHT31;74464;42.688;23.304;2024-01-27T14:35:19;4.28;57.83
84296;SHT31;74464;42.688;23.304;2024-01-27T14:37:45;4.28;57.42
84296;SHT31;74464;42.688;23.304;2024-01-27T14:40:11;4.20;57.57
84296;SHT31;74464;42.688;23.304;2024-01-27T14:42:38;4.16;57.95
84296;SHT31;74464;42.688;23.304;2024-01-27T14:45:05;4.15;58.04
84296;SHT31;74464;42.688;23.304;2024-01-27T14:47:31;4.06;58.28
84296;SHT31;74464;42.688;23.304;2024-01-27T14:49:56;4.03;58.16
84296;SHT31;74464;42.688;23.304;2024-01-27T14:52:22;4.05;58.00
84296;SHT31;74464;42.688;23.304;2024-01-27T14:54:49;4.02;58.25
84296;SHT31;74464;42.688;23.304;2024-01-27T14:57:14;4.02;58.07
84296;SHT31;74464;42.688;23.304;2024-01-27T14:59:40;3.99;58.49
84296;SHT31;74464;42.688;23.304;2024-01-27T15:02:06;3.95;58.72
84296;SHT31;74464;42.688;23.304;2024-01-27T15:04:34;3.99;58.47
84296;SHT31;74464;42.688;23.304;2024-01-27T15:07:00;4.01;58.44
84296;SHT31;74464;42.688;23.304;2024-01-27T15:09:26;3.95;58.77
84296;SHT31;74464;42.688;23.304;2024-01-27T15:11:52;3.88;58.80
84296;SHT31;74464;42.688;23.304;2024-01-27T15:14:18;3.85;59.10
84296;SHT31;74464;42.688;23.304;2024-01-27T15:16:45;3.75;59.48
84296;SHT31;74464;42.688;23.304;2024-01-27T15:19:10;3.74;59.43
84296;SHT31;74464;42.688;23.304;2024-01-27T15:21:36;3.74;59.55
84296;SHT31;74464;42.688;23.304;2024-01-27T15:24:02;3.74;59.69
84296;SHT31;74464;42.688;23.304;2024-01-27T15:26:28;3.71;59.68
84296;SHT31;74464;42.688;23.304;2024-01-27T15:28:54;3.64;60.16
84296;SHT31;74464;42.688;23.304;2024-01-27T15:31:20;3.69;60.16